Time;durP1;ratioP1;P1;durP2;ratioP2;P2;SDS_P1;SDS_P2;PMS_P1;PMS_P2;Temp;Humidity;BMP_temperature;BMP_pressure;BME280_temperature;BME280_humidity;BME280_pressure;Samples;Min_cycle;Max_cycle;Signal;HPM_P1;HPM_P2
2021/01/02 00:05:15;;;;;;;4.22;2.10;;;4.80;99.90;;;;;;10365726;28;20640;-53
2021/01/02 00:11:10;;;;;;;9.07;2.45;;;4.70;99.90;;;;;;10366273;28;20038;-52
2021/01/02 00:16:43;;;;;;;8.10;2.08;;;4.80;99.90;;;;;;10363863;28;20094;-52
2021/01/02 00:22:10;;;;;;;1.88;1.10;;;4.70;99.90;;;;;;10374670;28;20029;-52
2021/01/02 00:27:50;;;;;;;5.22;2.83;;;4.70;99.90;;;;;;10372511;28;20058;-52
2021/01/02 00:33:29;;;;;;;7.63;2.63;;;4.70;99.90;;;;;;10362331;28;20105;-52
2021/01/02 00:38:50;;;;;;;6.80;2.08;;;4.70;99.90;;;;;;10360843;28;20525;-52
2021/01/02 00:44:14;;;;;;;11.50;2.58;;;4.70;99.90;;;;;;10360697;28;20046;-52
2021/01/02 00:49:36;;;;;;;11.02;3.45;;;4.70;99.90;;;;;;10366918;28;20100;-52
2021/01/02 00:55:13;;;;;;;10.93;2.85;;;4.60;99.90;;;;;;10360200;28;20124;-52
2021/01/02 01:00:36;;;;;;;8.65;3.75;;;4.70;99.90;;;;;;10362302;28;20034;-52
2021/01/02 01:06:02;;;;;;;6.18;3.03;;;4.70;99.90;;;;;;10365140;28;20125;-52
2021/01/02 01:11:32;;;;;;;15.85;4.10;;;4.70;99.90;;;;;;10364936;28;20055;-52
2021/01/02 01:17:00;;;;;;;12.55;3.78;;;4.60;99.90;;;;;;10360519;28;20033;-52
2021/01/02 01:22:25;;;;;;;7.78;2.97;;;4.60;99.90;;;;;;10362081;28;20064;-52
2021/01/02 01:27:54;;;;;;;13.90;3.00;;;4.50;99.90;;;;;;10377827;28;20050;-52
2021/01/02 01:33:26;;;;;;;10.10;3.97;;;4.50;99.90;;;;;;10361383;28;20052;-52
2021/01/02 01:38:53;;;;;;;11.50;3.38;;;4.60;99.90;;;;;;10376427;28;20029;-52
2021/01/02 01:45:06;;;;;;;9.85;3.92;;;4.50;99.90;;;;;;10358502;28;20077;-52
2021/01/02 01:50:49;;;;;;;12.60;4.70;;;4.40;99.90;;;;;;10358274;28;20037;-52
2021/01/02 01:56:36;;;;;;;9.60;3.70;;;4.50;99.90;;;;;;10358688;28;20038;-52
2021/01/02 02:02:12;;;;;;;13.18;3.78;;;4.50;99.90;;;;;;10359159;28;20048;-52
2021/01/02 02:07:46;;;;;;;10.23;3.63;;;4.40;99.90;;;;;;10364402;28;20156;-52
2021/01/02 02:13:28;;;;;;;14.30;3.00;;;4.30;99.90;;;;;;10359150;28;20030;-52
2021/01/02 02:18:58;;;;;;;7.97;3.72;;;4.30;99.90;;;;;;10380762;28;20116;-52
2021/01/02 02:24:25;;;;;;;5.95;3.13;;;4.30;99.90;;;;;;10361399;28;20133;-52
2021/01/02 02:30:14;;;;;;;19.30;3.75;;;4.20;99.90;;;;;;10356947;28;20046;-52
2021/01/02 02:35:36;;;;;;;11.95;2.75;;;4.20;99.90;;;;;;10360317;28;20037;-52
2021/01/02 02:40:57;;;;;;;12.88;2.72;;;4.20;99.90;;;;;;10365175;28;20029;-52
2021/01/02 02:46:20;;;;;;;16.10;3.80;;;4.10;99.90;;;;;;10369407;28;20041;-52
2021/01/02 02:51:55;;;;;;;10.68;3.67;;;4.10;99.90;;;;;;10368026;28;21117;-52
2021/01/02 02:57:17;;;;;;;11.10;3.75;;;4.10;99.90;;;;;;10365878;28;20053;-52
2021/01/02 03:02:39;;;;;;;10.85;2.75;;;4.10;99.90;;;;;;10369573;28;20042;-52
2021/01/02 03:08:00;;;;;;;10.02;3.63;;;4.10;99.90;;;;;;10369610;28;20137;-52
2021/01/02 03:13:21;;;;;;;15.60;3.22;;;4.10;99.90;;;;;;10368726;28;20132;-52
2021/01/02 03:18:42;;;;;;;7.32;2.83;;;4.20;99.90;;;;;;10367447;28;20037;-52
2021/01/02 03:24:07;;;;;;;19.20;4.78;;;4.20;99.90;;;;;;10370220;28;20050;-52
2021/01/02 03:29:28;;;;;;;14.23;4.05;;;4.20;99.90;;;;;;10367025;28;20385;-52
2021/01/02 03:34:49;;;;;;;12.27;3.95;;;4.20;99.90;;;;;;10376462;28;20041;-53
2021/01/02 03:40:12;;;;;;;9.30;3.40;;;4.20;99.90;;;;;;10364359;28;20034;-52
2021/01/02 03:45:33;;;;;;;9.50;4.30;;;4.20;99.90;;;;;;10365635;28;20520;-52
2021/01/02 03:50:54;;;;;;;11.52;4.43;;;4.20;99.90;;;;;;10363718;28;20042;-52
2021/01/02 03:56:15;;;;;;;15.20;4.78;;;4.20;99.90;;;;;;10369130;28;20068;-52
2021/01/02 04:01:36;;;;;;;8.55;3.50;;;4.20;99.90;;;;;;10366798;28;20516;-52
2021/01/02 04:07:00;;;;;;;13.30;4.30;;;4.20;99.90;;;;;;10363759;28;20042;-52
2021/01/02 04:12:21;;;;;;;10.02;3.75;;;4.20;99.90;;;;;;10362686;28;20036;-52
2021/01/02 04:17:44;;;;;;;17.25;4.13;;;4.20;99.90;;;;;;10363913;28;20041;-52
2021/01/02 04:23:05;;;;;;;8.27;3.60;;;4.20;99.90;;;;;;10371189;28;20038;-52
2021/01/02 04:28:26;;;;;;;12.98;4.10;;;4.20;99.90;;;;;;10369909;28;21044;-52
2021/01/02 04:33:50;;;;;;;8.10;3.60;;;4.00;99.90;;;;;;10363261;28;20038;-52
2021/01/02 04:39:11;;;;;;;9.77;3.28;;;3.90;99.90;;;;;;10364118;28;20113;-52
2021/01/02 04:44:33;;;;;;;8.15;4.13;;;3.90;99.90;;;;;;10372229;28;20041;-52
2021/01/02 04:49:54;;;;;;;10.77;3.70;;;3.70;99.90;;;;;;10362096;28;20034;-52
2021/01/02 04:55:17;;;;;;;18.23;4.13;;;3.70;99.90;;;;;;10361951;28;20049;-52
2021/01/02 05:00:39;;;;;;;13.85;4.43;;;3.70;99.90;;;;;;10365069;28;20049;-52
2021/01/02 05:06:04;;;;;;;7.18;3.50;;;3.60;99.90;;;;;;10368561;28;20179;-52
2021/01/02 05:11:25;;;;;;;11.95;4.22;;;3.60;99.90;;;;;;10359449;28;20029;-52
2021/01/02 05:16:46;;;;;;;10.80;3.78;;;3.50;99.90;;;;;;10372267;28;20034;-52
2021/01/02 05:22:23;;;;;;;9.88;4.82;;;3.50;99.90;;;;;;10361572;28;20049;-52
2021/01/02 05:27:47;;;;;;;12.95;3.80;;;3.50;99.90;;;;;;10359486;28;20084;-52
2021/01/02 05:33:14;;;;;;;8.13;3.42;;;3.50;99.90;;;;;;10362310;28;20113;-52
2021/01/02 05:38:39;;;;;;;17.13;4.53;;;3.50;99.90;;;;;;10372570;28;20046;-52
2021/01/02 05:44:12;;;;;;;12.35;3.97;;;3.50;99.90;;;;;;10358066;28;20470;-52
2021/01/02 05:49:36;;;;;;;9.88;3.30;;;3.60;99.90;;;;;;10371607;28;20041;-52
2021/01/02 05:54:57;;;;;;;10.60;3.30;;;3.60;99.90;;;;;;10370054;28;20038;-52
2021/01/02 06:00:19;;;;;;;10.65;4.28;;;3.70;99.90;;;;;;10361827;28;20118;-52
2021/01/02 06:05:57;;;;;;;19.42;4.05;;;3.60;99.90;;;;;;10359144;28;20492;-52
2021/01/02 06:11:21;;;;;;;11.15;3.47;;;3.70;99.90;;;;;;10357047;28;20033;-52
2021/01/02 06:16:46;;;;;;;12.32;3.25;;;3.60;99.90;;;;;;10366501;28;20493;-52
2021/01/02 06:22:10;;;;;;;7.78;3.35;;;3.70;99.90;;;;;;10368075;28;20038;-52
2021/01/02 06:27:32;;;;;;;14.25;3.78;;;3.70;99.90;;;;;;10367160;28;20041;-52
2021/01/02 06:32:53;;;;;;;9.32;3.53;;;3.70;99.90;;;;;;10383798;28;20046;-52
2021/01/02 06:38:15;;;;;;;10.30;5.47;;;3.70;99.90;;;;;;10367468;28;20026;-52
2021/01/02 06:43:39;;;;;;;17.75;4.15;;;3.70;99.90;;;;;;10365289;28;20385;-52
2021/01/02 06:49:00;;;;;;;13.93;4.38;;;3.80;99.90;;;;;;10367504;28;20041;-52
2021/01/02 06:54:23;;;;;;;12.05;3.30;;;3.70;99.90;;;;;;10366241;28;20030;-52
2021/01/02 06:59:44;;;;;;;8.93;4.25;;;3.70;99.90;;;;;;10372513;28;20629;-52
2021/01/02 07:05:05;;;;;;;15.35;4.50;;;3.60;99.90;;;;;;10366875;28;20050;-53
2021/01/02 07:10:29;;;;;;;11.70;3.95;;;3.70;99.90;;;;;;10367893;28;20206;-52
2021/01/02 07:15:50;;;;;;;6.05;3.35;;;3.60;99.90;;;;;;10367239;28;20125;-52
2021/01/02 07:21:33;;;;;;;11.80;4.30;;;3.60;99.90;;;;;;10367437;28;20030;-52
2021/01/02 07:27:05;;;;;;;13.07;4.32;;;3.60;99.90;;;;;;10372390;28;20065;-52
2021/01/02 07:32:28;;;;;;;12.13;3.47;;;3.50;99.90;;;;;;10370898;28;20193;-52
2021/01/02 07:37:54;;;;;;;10.98;3.13;;;3.50;99.90;;;;;;10372298;28;20040;-52
2021/01/02 07:43:15;;;;;;;11.30;3.70;;;3.50;99.90;;;;;;10366383;28;20037;-52
2021/01/02 07:48:36;;;;;;;10.38;4.25;;;3.60;99.90;;;;;;10366562;28;20038;-52
2021/01/02 07:53:57;;;;;;;12.93;5.03;;;3.60;99.90;;;;;;10368530;28;20065;-52
2021/01/02 07:59:30;;;;;;;15.00;4.95;;;3.60;99.90;;;;;;10367288;28;20034;-52
2021/01/02 08:04:54;;;;;;;13.15;4.53;;;3.60;99.90;;;;;;10372767;28;20045;-52
2021/01/02 08:10:15;;;;;;;12.23;3.63;;;3.50;99.90;;;;;;10364769;28;20042;-52
2021/01/02 08:15:37;;;;;;;18.02;4.97;;;3.50;99.90;;;;;;10366438;28;20033;-52
2021/01/02 08:21:01;;;;;;;11.10;4.95;;;3.50;99.90;;;;;;10366228;28;20037;-52
2021/01/02 08:26:22;;;;;;;21.10;6.05;;;3.50;99.90;;;;;;10363971;28;20045;-52
2021/01/02 08:31:56;;;;;;;19.83;4.55;;;3.50;99.90;;;;;;10368193;28;20057;-52
2021/01/02 08:37:17;;;;;;;12.32;4.32;;;3.50;99.90;;;;;;10367784;28;20521;-52
2021/01/02 08:42:40;;;;;;;14.32;4.60;;;3.50;99.90;;;;;;10367817;28;20599;-52
2021/01/02 08:48:06;;;;;;;13.82;4.50;;;3.60;99.90;;;;;;10367197;28;20395;-52
2021/01/02 08:53:29;;;;;;;10.27;5.15;;;3.60;99.90;;;;;;10368684;28;20121;-52
2021/01/02 08:58:51;;;;;;;9.00;3.67;;;3.60;99.90;;;;;;10362269;28;20360;-52
2021/01/02 09:04:13;;;;;;;17.35;4.50;;;3.70;99.90;;;;;;10362373;28;20046;-52
2021/01/02 09:09:34;;;;;;;15.82;4.75;;;3.80;99.90;;;;;;10369117;28;20065;-52
2021/01/02 09:14:55;;;;;;;14.93;4.00;;;3.90;99.90;;;;;;10365918;28;20124;-52
2021/01/02 09:20:19;;;;;;;13.00;4.97;;;3.90;99.90;;;;;;10366017;28;20048;-52
2021/01/02 09:25:40;;;;;;;10.18;4.63;;;4.00;99.90;;;;;;10363096;28;20084;-52
2021/01/02 09:31:01;;;;;;;14.35;4.15;;;4.00;99.90;;;;;;10362042;28;20038;-52
2021/01/02 09:36:22;;;;;;;11.60;4.28;;;4.00;99.90;;;;;;10361406;28;20044;-52
2021/01/02 09:41:43;;;;;;;17.77;4.55;;;4.00;99.90;;;;;;10361983;28;20054;-52
2021/01/02 09:47:04;;;;;;;9.75;4.07;;;3.90;99.90;;;;;;10360935;28;20046;-52
2021/01/02 09:52:25;;;;;;;13.55;4.70;;;3.80;99.90;;;;;;10367016;28;20041;-52
2021/01/02 09:57:50;;;;;;;14.55;5.57;;;3.80;99.90;;;;;;10361477;28;20136;-52
2021/01/02 10:03:11;;;;;;;13.40;4.53;;;3.90;99.90;;;;;;10377196;28;20040;-53
2021/01/02 10:08:32;;;;;;;9.48;3.95;;;4.00;99.90;;;;;;10363400;28;20117;-52
2021/01/02 10:13:53;;;;;;;11.60;4.47;;;4.10;99.90;;;;;;10365817;28;20026;-52
2021/01/02 10:19:14;;;;;;;21.60;5.63;;;4.10;99.90;;;;;;10362252;28;20125;-52
2021/01/02 10:24:35;;;;;;;17.13;4.72;;;4.20;99.90;;;;;;10361131;28;20050;-52
2021/01/02 10:29:57;;;;;;;18.42;5.30;;;4.10;99.90;;;;;;10363067;28;20046;-52
2021/01/02 10:35:19;;;;;;;16.25;5.28;;;4.10;99.90;;;;;;10363985;28;20450;-52
2021/01/02 10:40:39;;;;;;;12.85;3.42;;;4.10;99.90;;;;;;10367732;28;20044;-52
2021/01/02 10:46:00;;;;;;;8.02;3.63;;;4.20;99.90;;;;;;10361588;28;20075;-52
2021/01/02 10:51:21;;;;;;;12.82;3.80;;;4.20;99.90;;;;;;10362890;28;20037;-52
2021/01/02 10:56:44;;;;;;;15.40;4.72;;;4.20;99.90;;;;;;10364074;28;20038;-52
2021/01/02 11:02:05;;;;;;;13.55;4.07;;;4.00;99.90;;;;;;10369177;28;20455;-52
2021/01/02 11:07:26;;;;;;;13.70;3.75;;;4.20;99.90;;;;;;10370800;28;20037;-52
2021/01/02 11:12:47;;;;;;;12.00;3.33;;;4.40;99.90;;;;;;10371030;28;20026;-52
2021/01/02 11:18:08;;;;;;;10.15;2.92;;;4.30;99.90;;;;;;10368465;28;20374;-52
2021/01/02 11:23:29;;;;;;;14.90;3.63;;;4.30;99.90;;;;;;10367281;28;20069;-52
2021/01/02 11:28:50;;;;;;;11.07;4.45;;;4.30;99.90;;;;;;10368920;28;20080;-52
2021/01/02 11:34:13;;;;;;;20.50;5.03;;;4.30;99.90;;;;;;10365382;28;20037;-52
2021/01/02 11:39:34;;;;;;;7.25;3.40;;;4.30;99.90;;;;;;10372099;28;20034;-52
2021/01/02 11:44:55;;;;;;;15.35;4.63;;;4.40;99.90;;;;;;10369575;28;20044;-52
2021/01/02 11:50:16;;;;;;;11.40;3.33;;;4.40;99.90;;;;;;10367816;28;20041;-52
2021/01/02 11:55:37;;;;;;;11.05;3.65;;;4.50;99.90;;;;;;10366528;28;20461;-53
2021/01/02 12:00:58;;;;;;;10.48;2.83;;;4.50;99.90;;;;;;10368263;28;20038;-52
2021/01/02 12:06:27;;;;;;;16.40;3.60;;;4.50;99.90;;;;;;10364923;28;20091;-52
2021/01/02 12:11:48;;;;;;;15.75;5.22;;;4.50;99.90;;;;;;10364760;28;20034;-52
2021/01/02 12:17:11;;;;;;;14.45;3.75;;;4.40;99.90;;;;;;10365232;28;20405;-52
2021/01/02 12:22:33;;;;;;;14.45;4.07;;;4.30;99.90;;;;;;10364090;28;20045;-52
2021/01/02 12:27:58;;;;;;;8.68;2.95;;;4.40;99.90;;;;;;10365961;28;20779;-52
2021/01/02 12:33:19;;;;;;;11.82;4.65;;;4.40;99.90;;;;;;10365344;28;20132;-52
2021/01/02 12:38:41;;;;;;;11.10;3.88;;;4.30;99.90;;;;;;10376373;28;20028;-52
2021/01/02 12:44:04;;;;;;;19.05;4.25;;;4.30;99.90;;;;;;10365139;28;20516;-52
2021/01/02 12:49:28;;;;;;;14.60;4.22;;;4.50;99.90;;;;;;10365301;28;20046;-52
2021/01/02 12:54:49;;;;;;;31.85;5.85;;;4.50;99.90;;;;;;10362939;28;20450;-52
2021/01/02 13:00:11;;;;;;;20.25;5.63;;;4.30;99.90;;;;;;10371202;28;20056;-52
2021/01/02 13:05:32;;;;;;;9.68;3.17;;;4.40;99.90;;;;;;10366684;28;20072;-52
2021/01/02 13:10:53;;;;;;;16.90;4.97;;;4.40;99.90;;;;;;10368460;28;20125;-52
2021/01/02 13:16:14;;;;;;;17.02;5.15;;;4.50;99.90;;;;;;10361043;28;20060;-52
2021/01/02 13:21:34;;;;;;;9.63;3.67;;;4.60;99.90;;;;;;10362891;28;20475;-52
2021/01/02 13:27:01;;;;;;;20.52;3.80;;;4.60;99.90;;;;;;10361317;28;20544;-52
2021/01/02 13:32:21;;;;;;;13.55;4.05;;;4.80;99.90;;;;;;10374257;28;20612;-52
2021/01/02 13:37:42;;;;;;;21.60;4.47;;;4.80;99.90;;;;;;10366326;28;20040;-52
2021/01/02 13:43:03;;;;;;;15.48;4.28;;;4.70;99.90;;;;;;10362437;28;20061;-52
2021/01/02 13:48:24;;;;;;;19.38;4.20;;;4.60;99.90;;;;;;10353283;28;20051;-52
2021/01/02 13:53:46;;;;;;;15.00;6.05;;;4.70;99.90;;;;;;10358007;28;20414;-52
2021/01/02 13:59:06;;;;;;;14.63;4.40;;;4.70;99.90;;;;;;10355459;28;20059;-52
2021/01/02 14:04:27;;;;;;;14.18;4.05;;;4.70;99.90;;;;;;10358718;28;20052;-52
2021/01/02 14:09:48;;;;;;;15.05;4.25;;;4.70;99.90;;;;;;10353814;28;20038;-52
2021/01/02 14:15:10;;;;;;;20.83;6.22;;;4.80;99.90;;;;;;10356590;28;20034;-52
2021/01/02 14:20:31;;;;;;;22.73;4.63;;;4.80;99.90;;;;;;10355096;28;20120;-52
2021/01/02 14:25:52;;;;;;;15.43;4.57;;;4.90;99.90;;;;;;10353572;28;20046;-52
2021/01/02 14:31:13;;;;;;;15.48;5.72;;;4.80;99.90;;;;;;10357795;28;20057;-52
2021/01/02 14:36:35;;;;;;;14.32;4.45;;;4.90;99.90;;;;;;10360924;28;20096;-53
2021/01/02 14:41:58;;;;;;;18.70;5.22;;;4.90;99.90;;;;;;10362236;28;20052;-52
2021/01/02 14:47:19;;;;;;;14.77;4.75;;;4.90;99.90;;;;;;10365059;28;20045;-52
2021/01/02 14:52:40;;;;;;;16.30;5.32;;;4.90;99.90;;;;;;10375034;28;20041;-52
2021/01/02 14:58:01;;;;;;;17.08;4.97;;;4.90;99.90;;;;;;10360784;28;20140;-52
2021/01/02 15:03:23;;;;;;;8.80;3.58;;;4.80;99.90;;;;;;10368999;28;20083;-53
2021/01/02 15:08:44;;;;;;;9.77;4.18;;;4.90;99.90;;;;;;10363486;28;20040;-52
2021/01/02 15:14:05;;;;;;;10.48;4.10;;;4.80;99.90;;;;;;10361037;28;20922;-52
2021/01/02 15:19:26;;;;;;;11.82;4.47;;;4.80;99.90;;;;;;10363334;28;20510;-52
2021/01/02 15:24:47;;;;;;;13.50;5.45;;;4.80;99.90;;;;;;10359593;28;20057;-52
2021/01/02 15:30:09;;;;;;;23.08;6.35;;;4.80;99.90;;;;;;10361323;28;20055;-52
2021/01/02 15:35:32;;;;;;;11.35;3.42;;;4.70;99.90;;;;;;10363417;28;20037;-52
2021/01/02 15:41:00;;;;;;;19.98;5.82;;;4.70;99.90;;;;;;10364540;28;20933;-52
2021/01/02 15:46:21;;;;;;;12.10;4.10;;;4.60;99.90;;;;;;10360089;28;20075;-52
2021/01/02 15:51:43;;;;;;;17.33;5.97;;;4.60;99.90;;;;;;10359187;28;20128;-52
2021/01/02 15:57:06;;;;;;;14.48;3.50;;;4.70;99.90;;;;;;10358090;28;20062;-53
2021/01/02 16:02:27;;;;;;;10.07;3.85;;;4.60;99.90;;;;;;10359475;28;20042;-52
2021/01/02 16:07:48;;;;;;;8.93;3.42;;;4.50;99.90;;;;;;10367233;28;20448;-53
2021/01/02 16:13:09;;;;;;;11.55;4.18;;;4.50;99.90;;;;;;10364799;28;20119;-52
2021/01/02 16:18:30;;;;;;;16.35;4.72;;;4.60;99.90;;;;;;10368161;28;20045;-52
2021/01/02 16:23:51;;;;;;;10.90;3.83;;;4.60;99.90;;;;;;10374215;28;20030;-52
2021/01/02 16:29:24;;;;;;;16.95;6.63;;;4.60;99.90;;;;;;10364076;28;20100;-53
2021/01/02 16:34:47;;;;;;;16.10;4.72;;;4.70;99.90;;;;;;10366198;28;20034;-52
2021/01/02 16:40:09;;;;;;;24.13;5.05;;;4.70;99.90;;;;;;10362918;28;20070;-52
2021/01/02 16:45:29;;;;;;;15.35;5.82;;;4.70;99.90;;;;;;10364489;28;20672;-52
2021/01/02 16:50:50;;;;;;;18.58;4.93;;;4.60;99.90;;;;;;10364735;28;20084;-52
2021/01/02 16:56:15;;;;;;;9.77;3.97;;;4.60;99.90;;;;;;10365492;28;20654;-52
2021/01/02 17:01:38;;;;;;;15.20;6.15;;;4.60;99.90;;;;;;10363827;28;20063;-52
2021/01/02 17:07:00;;;;;;;11.25;4.57;;;4.50;99.90;;;;;;10362794;28;20140;-52
2021/01/02 17:12:21;;;;;;;12.45;4.35;;;4.50;99.90;;;;;;10363182;28;20033;-52
2021/01/02 17:17:42;;;;;;;17.25;3.95;;;4.50;99.90;;;;;;10374502;28;20029;-52
2021/01/02 17:23:03;;;;;;;13.23;5.07;;;4.50;99.90;;;;;;10362344;28;20079;-52
2021/01/02 17:28:24;;;;;;;17.58;4.70;;;4.50;99.90;;;;;;10375846;28;20137;-52
2021/01/02 17:33:46;;;;;;;7.47;3.55;;;4.50;99.90;;;;;;10365402;28;20028;-52
2021/01/02 17:39:10;;;;;;;8.25;2.42;;;4.40;99.90;;;;;;10365634;28;20537;-53
2021/01/02 17:44:31;;;;;;;8.30;4.03;;;4.30;99.90;;;;;;10364647;28;20066;-52
2021/01/02 17:49:53;;;;;;;15.80;5.47;;;4.30;99.90;;;;;;10361701;28;20064;-52
2021/01/02 17:55:14;;;;;;;19.95;5.25;;;4.40;99.90;;;;;;10361731;28;20152;-52
2021/01/02 18:00:35;;;;;;;13.93;4.68;;;4.40;99.90;;;;;;10361932;28;20056;-52
2021/01/02 18:05:56;;;;;;;14.20;5.28;;;4.30;99.90;;;;;;10363140;28;20045;-52
2021/01/02 18:11:28;;;;;;;12.52;5.45;;;4.30;99.90;;;;;;10363541;28;20046;-52
2021/01/02 18:16:57;;;;;;;10.65;4.55;;;4.30;99.90;;;;;;10361722;28;20041;-52
2021/01/02 18:22:18;;;;;;;;;;;4.40;99.90;;;;;;10361170;28;20026;-52
2021/01/02 18:27:40;;;;;;;15.55;3.80;;;4.40;99.90;;;;;;10361459;28;19925;-52
2021/01/02 18:33:01;;;;;;;17.15;5.97;;;4.40;99.90;;;;;;10359748;28;20033;-52
2021/01/02 18:38:22;;;;;;;13.15;4.78;;;4.40;99.90;;;;;;10361675;28;20096;-52
2021/01/02 18:43:44;;;;;;;13.60;4.05;;;4.50;99.90;;;;;;10362170;28;20041;-52
2021/01/02 18:49:07;;;;;;;26.67;5.07;;;4.50;99.90;;;;;;10363331;28;20130;-52
2021/01/02 18:54:29;;;;;;;13.73;4.05;;;4.40;99.90;;;;;;10362532;28;20058;-53
2021/01/02 18:59:50;;;;;;;21.85;6.70;;;4.40;99.90;;;;;;10359913;28;20125;-52
2021/01/02 19:05:17;;;;;;;14.30;5.35;;;4.40;99.90;;;;;;10373053;28;20057;-52
2021/01/02 19:10:38;;;;;;;15.35;5.43;;;4.50;99.90;;;;;;10360209;28;20037;-52
2021/01/02 19:15:59;;;;;;;12.48;3.97;;;4.50;99.90;;;;;;10358513;28;20033;-52
2021/01/02 19:21:21;;;;;;;22.23;7.55;;;4.50;99.90;;;;;;10364011;28;20041;-52
2021/01/02 19:26:42;;;;;;;14.77;5.78;;;4.40;99.90;;;;;;10367118;28;20042;-52
2021/01/02 19:32:05;;;;;;;20.83;6.65;;;4.50;99.90;;;;;;10367522;28;20448;-52
2021/01/02 19:37:26;;;;;;;13.77;4.05;;;4.60;99.90;;;;;;10367882;28;20057;-52
2021/01/02 19:42:47;;;;;;;21.77;5.30;;;4.60;99.90;;;;;;10366288;28;20849;-52
2021/01/02 19:48:09;;;;;;;26.00;7.40;;;4.60;99.90;;;;;;10366670;28;20045;-53
2021/01/02 19:53:30;;;;;;;29.75;6.60;;;4.60;99.90;;;;;;10365987;28;20040;-52
2021/01/02 19:58:51;;;;;;;25.23;6.97;;;4.60;99.90;;;;;;10369225;28;20037;-52
2021/01/02 20:04:12;;;;;;;16.85;6.13;;;4.50;99.90;;;;;;10366729;28;20045;-52
2021/01/02 20:09:34;;;;;;;23.20;7.53;;;4.60;99.90;;;;;;10365575;28;20065;-52
2021/01/02 20:14:55;;;;;;;19.77;7.43;;;4.60;99.90;;;;;;10380224;28;20041;-53
2021/01/02 20:20:16;;;;;;;32.55;7.50;;;4.60;99.90;;;;;;10367216;28;20124;-52
2021/01/02 20:25:41;;;;;;;19.67;6.70;;;4.60;99.90;;;;;;10364249;28;20046;-52
2021/01/02 20:31:03;;;;;;;12.43;5.70;;;4.60;99.90;;;;;;10363022;28;20041;-52
2021/01/02 20:36:30;;;;;;;19.08;7.53;;;4.60;99.90;;;;;;10364959;28;20050;-52
2021/01/02 20:41:51;;;;;;;29.38;7.95;;;4.70;99.90;;;;;;10362558;28;20061;-52
2021/01/02 20:47:13;;;;;;;18.67;6.05;;;4.60;99.90;;;;;;10358412;28;20436;-52
2021/01/02 20:52:34;;;;;;;21.08;7.22;;;4.60;99.90;;;;;;10358574;28;20501;-52
2021/01/02 20:57:55;;;;;;;18.10;7.15;;;4.70;99.90;;;;;;10359604;28;20045;-52
2021/01/02 21:03:16;;;;;;;13.65;6.57;;;4.70;99.90;;;;;;10360769;28;20120;-52
2021/01/02 21:08:37;;;;;;;17.13;6.78;;;4.70;99.90;;;;;;10363855;28;20694;-52
2021/01/02 21:13:59;;;;;;;16.13;4.30;;;4.70;99.90;;;;;;10361542;28;20038;-52
2021/01/02 21:19:26;;;;;;;14.68;5.68;;;4.70;99.90;;;;;;10363256;28;20041;-53
2021/01/02 21:24:48;;;;;;;20.45;5.40;;;4.70;99.90;;;;;;10362612;28;20465;-52
2021/01/02 21:30:10;;;;;;;22.02;8.18;;;4.70;99.90;;;;;;10364095;28;20561;-53
2021/01/02 21:35:31;;;;;;;17.42;6.80;;;4.70;99.90;;;;;;10360015;28;20046;-53
2021/01/02 21:40:52;;;;;;;17.40;5.90;;;4.70;99.90;;;;;;10362091;28;20474;-52
2021/01/02 21:46:13;;;;;;;12.98;5.85;;;4.70;99.90;;;;;;10362560;28;20061;-52
2021/01/02 21:51:36;;;;;;;20.42;7.70;;;4.60;99.90;;;;;;10361303;28;20034;-52
2021/01/02 21:56:59;;;;;;;19.58;6.70;;;4.60;99.90;;;;;;10361691;28;20042;-52
2021/01/02 22:02:20;;;;;;;13.68;5.47;;;4.60;99.90;;;;;;10361065;28;20038;-53
2021/01/02 22:07:41;;;;;;;21.08;6.68;;;4.60;99.90;;;;;;10361782;28;20439;-52
2021/01/02 22:13:02;;;;;;;17.67;6.90;;;4.60;99.90;;;;;;10362492;28;20042;-52
2021/01/02 22:18:23;;;;;;;25.23;6.47;;;4.50;99.90;;;;;;10360532;28;20120;-52
2021/01/02 22:23:45;;;;;;;24.00;7.35;;;4.60;99.90;;;;;;10362390;28;20049;-53
2021/01/02 22:29:07;;;;;;;14.13;5.47;;;4.60;99.90;;;;;;10358539;28;20048;-52
2021/01/02 22:34:28;;;;;;;29.55;8.10;;;4.60;99.90;;;;;;10362425;28;20061;-52
2021/01/02 22:39:50;;;;;;;16.45;4.95;;;4.50;99.90;;;;;;10363183;28;20066;-52
2021/01/02 22:45:11;;;;;;;13.98;5.55;;;4.50;99.90;;;;;;10361031;28;20117;-52
2021/01/02 22:50:32;;;;;;;22.63;4.60;;;4.50;99.90;;;;;;10358273;28;20041;-52
2021/01/02 22:55:53;;;;;;;17.25;5.85;;;4.50;99.90;;;;;;10362515;28;20041;-52
2021/01/02 23:01:17;;;;;;;11.40;4.43;;;4.50;99.90;;;;;;10370822;28;20096;-53
2021/01/02 23:06:38;;;;;;;16.13;4.80;;;4.50;99.90;;;;;;10369320;28;20136;-52
2021/01/02 23:12:00;;;;;;;13.65;3.92;;;4.40;99.90;;;;;;10365223;28;20038;-52
2021/01/02 23:17:21;;;;;;;8.82;3.45;;;4.30;99.90;;;;;;10365954;28;20123;-52
2021/01/02 23:22:49;;;;;;;13.52;3.80;;;4.30;99.90;;;;;;10367138;28;20069;-53
2021/01/02 23:28:10;;;;;;;11.75;4.72;;;4.30;99.90;;;;;;10367724;28;20049;-53
2021/01/02 23:33:31;;;;;;;17.83;4.70;;;4.30;99.90;;;;;;10365953;28;20442;-53
2021/01/02 23:38:52;;;;;;;16.73;4.97;;;4.30;99.90;;;;;;10366395;28;20124;-53
2021/01/02 23:44:13;;;;;;;14.68;5.53;;;4.30;99.90;;;;;;10365016;28;20833;-52
2021/01/02 23:49:36;;;;;;;12.43;4.97;;;4.30;99.90;;;;;;10371172;28;20077;-52
2021/01/02 23:54:57;;;;;;;19.02;6.45;;;4.40;99.90;;;;;;10376063;28;20132;-52
